Woodrow, Arkansas
Current Conditions -  °F | °C
As of 8:15 PM on Friday 31 Oct 2014 (Local Time) from KBVX Reporting Station
Clear Clear  
Wind Chill: 42°   Ceiling: Unl
Heat Index: 45°   Visibility: 10mi
Dew Point: 19°   Wind: 5mph
Humidity: 37%   Direction: 330°NNW
Pressure: 30.35"   Gusts: NA
Location:  35.6931°N, 92.1518°W
Report Text: KBVX 010115Z AUTO 33004KT 10SM CLR 07/M07 A3035 RMK AO1
Loading
Personal Weather Stations






























Interactive Weather Map
Tropical Storm Tracking
New forecast layout! Learn more

10-Day Weather Forecast

Advertisements
Track Severe Weather on mobile